sensor_id;sensor_type;location;lat;lon;timestamp;temperature;humidity
48666;DHT22;34452;50.796;4.994;2022-11-15T00:01:54;10.80;99.90
48666;DHT22;34452;50.796;4.994;2022-11-15T00:04:20;10.80;99.90
48666;DHT22;34452;50.796;4.994;2022-11-15T00:06:46;10.80;99.90
48666;DHT22;34452;50.796;4.994;2022-11-15T00:09:11;10.90;99.90
48666;DHT22;34452;50.796;4.994;2022-11-15T00:11:37;10.90;99.90
48666;DHT22;34452;50.796;4.994;2022-11-15T00:14:03;10.90;99.90
48666;DHT22;34452;50.796;4.994;2022-11-15T00:16:29;10.90;99.90
48666;DHT22;34452;50.796;4.994;2022-11-15T00:18:54;10.90;99.90
48666;DHT22;34452;50.796;4.994;2022-11-15T00:21:20;10.90;99.90
48666;DHT22;34452;50.796;4.994;2022-11-15T00:23:46;11.00;99.90
48666;DHT22;34452;50.796;4.994;2022-11-15T00:26:14;11.00;99.90
48666;DHT22;34452;50.796;4.994;2022-11-15T00:28:41;11.00;99.90
48666;DHT22;34452;50.796;4.994;2022-11-15T00:31:11;11.00;99.90
48666;DHT22;34452;50.796;4.994;2022-11-15T00:33:37;11.10;99.90
48666;DHT22;34452;50.796;4.994;2022-11-15T00:36:08;11.10;99.90
48666;DHT22;34452;50.796;4.994;2022-11-15T00:38:38;11.10;99.90
48666;DHT22;34452;50.796;4.994;2022-11-15T00:41:05;11.10;99.90
48666;DHT22;34452;50.796;4.994;2022-11-15T00:43:32;11.10;99.90
48666;DHT22;34452;50.796;4.994;2022-11-15T00:45:58;11.20;99.90
48666;DHT22;34452;50.796;4.994;2022-11-15T00:48:24;11.20;99.90
48666;DHT22;34452;50.796;4.994;2022-11-15T00:50:50;11.20;99.90
48666;DHT22;34452;50.796;4.994;2022-11-15T00:53:16;11.20;99.90
48666;DHT22;34452;50.796;4.994;2022-11-15T00:55:43;11.20;99.90
48666;DHT22;34452;50.796;4.994;2022-11-15T00:58:09;11.10;99.90
48666;DHT22;34452;50.796;4.994;2022-11-15T01:00:34;11.20;99.90
48666;DHT22;34452;50.796;4.994;2022-11-15T01:03:00;11.10;99.90
48666;DHT22;34452;50.796;4.994;2022-11-15T01:05:27;11.20;99.90
48666;DHT22;34452;50.796;4.994;2022-11-15T01:07:54;11.10;99.90
48666;DHT22;34452;50.796;4.994;2022-11-15T01:10:20;11.20;99.90
48666;DHT22;34452;50.796;4.994;2022-11-15T01:12:46;11.20;99.90
48666;DHT22;34452;50.796;4.994;2022-11-15T01:15:12;11.20;99.90
48666;DHT22;34452;50.796;4.994;2022-11-15T01:17:37;11.20;99.90
48666;DHT22;34452;50.796;4.994;2022-11-15T01:20:04;11.20;99.90
48666;DHT22;34452;50.796;4.994;2022-11-15T01:22:29;11.20;99.90
48666;DHT22;34452;50.796;4.994;2022-11-15T01:24:55;11.20;99.90
48666;DHT22;34452;50.796;4.994;2022-11-15T01:27:21;11.20;99.90
48666;DHT22;34452;50.796;4.994;2022-11-15T01:29:47;11.20;99.90
48666;DHT22;34452;50.796;4.994;2022-11-15T01:32:13;11.20;99.90
48666;DHT22;34452;50.796;4.994;2022-11-15T01:34:38;11.20;99.90
48666;DHT22;34452;50.796;4.994;2022-11-15T01:37:04;11.20;99.90
48666;DHT22;34452;50.796;4.994;2022-11-15T01:39:30;11.30;99.90
48666;DHT22;34452;50.796;4.994;2022-11-15T01:41:55;11.30;99.90
48666;DHT22;34452;50.796;4.994;2022-11-15T01:47:01;11.30;99.90
48666;DHT22;34452;50.796;4.994;2022-11-15T01:49:29;11.40;99.90
48666;DHT22;34452;50.796;4.994;2022-11-15T01:51:57;11.40;99.90
48666;DHT22;34452;50.796;4.994;2022-11-15T01:54:23;11.40;99.90
48666;DHT22;34452;50.796;4.994;2022-11-15T01:56:59;11.40;99.90
48666;DHT22;34452;50.796;4.994;2022-11-15T01:59:27;11.50;99.90
48666;DHT22;34452;50.796;4.994;2022-11-15T02:01:53;11.50;99.90
48666;DHT22;34452;50.796;4.994;2022-11-15T02:04:31;11.50;99.90
48666;DHT22;34452;50.796;4.994;2022-11-15T02:06:57;11.50;99.90
48666;DHT22;34452;50.796;4.994;2022-11-15T02:09:23;11.60;99.90
48666;DHT22;34452;50.796;4.994;2022-11-15T02:11:50;11.60;99.90
48666;DHT22;34452;50.796;4.994;2022-11-15T02:14:18;11.60;99.90
48666;DHT22;34452;50.796;4.994;2022-11-15T02:39:51;11.70;99.90
48666;DHT22;34452;50.796;4.994;2022-11-15T02:42:24;11.70;99.90
48666;DHT22;34452;50.796;4.994;2022-11-15T02:45:13;11.70;99.90
48666;DHT22;34452;50.796;4.994;2022-11-15T02:47:45;11.70;99.90
48666;DHT22;34452;50.796;4.994;2022-11-15T02:50:15;11.70;99.90
48666;DHT22;34452;50.796;4.994;2022-11-15T02:52:45;11.70;99.90
48666;DHT22;34452;50.796;4.994;2022-11-15T03:01:34;11.70;99.90
48666;DHT22;34452;50.796;4.994;2022-11-15T03:06:53;11.60;99.90
48666;DHT22;34452;50.796;4.994;2022-11-15T03:12:40;11.60;99.90
48666;DHT22;34452;50.796;4.994;2022-11-15T03:15:20;11.60;99.90
48666;DHT22;34452;50.796;4.994;2022-11-15T03:18:04;11.60;99.90
48666;DHT22;34452;50.796;4.994;2022-11-15T03:20:34;11.60;99.90
48666;DHT22;34452;50.796;4.994;2022-11-15T03:23:05;11.60;99.90
48666;DHT22;34452;50.796;4.994;2022-11-15T03:25:33;11.60;99.90
48666;DHT22;34452;50.796;4.994;2022-11-15T03:28:03;11.60;99.90
48666;DHT22;34452;50.796;4.994;2022-11-15T03:30:32;11.60;99.90
48666;DHT22;34452;50.796;4.994;2022-11-15T03:33:00;11.60;99.90
48666;DHT22;34452;50.796;4.994;2022-11-15T03:35:32;11.50;99.90
48666;DHT22;34452;50.796;4.994;2022-11-15T03:38:19;11.60;99.90
48666;DHT22;34452;50.796;4.994;2022-11-15T03:40:48;11.60;99.90
48666;DHT22;34452;50.796;4.994;2022-11-15T03:43:50;11.60;99.90
48666;DHT22;34452;50.796;4.994;2022-11-15T03:46:14;11.60;99.90
48666;DHT22;34452;50.796;4.994;2022-11-15T03:48:45;11.60;99.90
48666;DHT22;34452;50.796;4.994;2022-11-15T03:51:12;11.60;99.90
48666;DHT22;34452;50.796;4.994;2022-11-15T03:53:39;11.60;99.90
48666;DHT22;34452;50.796;4.994;2022-11-15T03:56:06;11.60;99.90
48666;DHT22;34452;50.796;4.994;2022-11-15T03:58:32;11.60;99.90
48666;DHT22;34452;50.796;4.994;2022-11-15T04:00:57;11.60;99.90
48666;DHT22;34452;50.796;4.994;2022-11-15T04:03:25;11.60;99.90
48666;DHT22;34452;50.796;4.994;2022-11-15T04:05:51;11.60;99.90
48666;DHT22;34452;50.796;4.994;2022-11-15T04:08:16;11.60;99.90
48666;DHT22;34452;50.796;4.994;2022-11-15T04:10:43;11.60;99.90
48666;DHT22;34452;50.796;4.994;2022-11-15T04:13:09;11.60;99.90
48666;DHT22;34452;50.796;4.994;2022-11-15T04:15:34;11.60;99.90
48666;DHT22;34452;50.796;4.994;2022-11-15T04:18:00;11.60;99.90
48666;DHT22;34452;50.796;4.994;2022-11-15T04:20:29;11.50;99.90
48666;DHT22;34452;50.796;4.994;2022-11-15T04:23:16;11.50;99.90
48666;DHT22;34452;50.796;4.994;2022-11-15T04:26:06;11.40;99.90
48666;DHT22;34452;50.796;4.994;2022-11-15T04:28:33;11.40;99.90
48666;DHT22;34452;50.796;4.994;2022-11-15T04:30:59;11.40;99.90
48666;DHT22;34452;50.796;4.994;2022-11-15T04:33:25;11.30;99.90
48666;DHT22;34452;50.796;4.994;2022-11-15T04:35:51;11.30;99.90
48666;DHT22;34452;50.796;4.994;2022-11-15T04:38:49;11.30;99.90
48666;DHT22;34452;50.796;4.994;2022-11-15T04:41:14;11.30;99.90
48666;DHT22;34452;50.796;4.994;2022-11-15T04:43:40;11.20;99.90
48666;DHT22;34452;50.796;4.994;2022-11-15T04:46:06;11.20;99.90
48666;DHT22;34452;50.796;4.994;2022-11-15T04:48:31;11.20;99.90
48666;DHT22;34452;50.796;4.994;2022-11-15T04:50:57;11.20;99.90
48666;DHT22;34452;50.796;4.994;2022-11-15T04:53:23;11.20;99.90
48666;DHT22;34452;50.796;4.994;2022-11-15T04:55:48;11.20;99.90
48666;DHT22;34452;50.796;4.994;2022-11-15T04:58:14;11.20;99.90
48666;DHT22;34452;50.796;4.994;2022-11-15T05:00:40;11.20;99.90
48666;DHT22;34452;50.796;4.994;2022-11-15T05:03:05;11.10;99.90
48666;DHT22;34452;50.796;4.994;2022-11-15T05:05:49;11.20;99.90
48666;DHT22;34452;50.796;4.994;2022-11-15T05:08:15;11.10;99.90
48666;DHT22;34452;50.796;4.994;2022-11-15T05:10:41;11.10;99.90
48666;DHT22;34452;50.796;4.994;2022-11-15T05:13:07;11.10;99.90
48666;DHT22;34452;50.796;4.994;2022-11-15T05:15:32;11.10;99.90
48666;DHT22;34452;50.796;4.994;2022-11-15T05:17:59;11.10;99.90
48666;DHT22;34452;50.796;4.994;2022-11-15T05:20:25;11.10;99.90
48666;DHT22;34452;50.796;4.994;2022-11-15T05:22:53;11.00;99.90
48666;DHT22;34452;50.796;4.994;2022-11-15T05:25:18;11.00;99.90
48666;DHT22;34452;50.796;4.994;2022-11-15T05:27:44;11.00;99.90
48666;DHT22;34452;50.796;4.994;2022-11-15T05:30:10;11.00;99.90
48666;DHT22;34452;50.796;4.994;2022-11-15T05:32:36;10.90;99.90
48666;DHT22;34452;50.796;4.994;2022-11-15T05:35:02;10.90;99.90
48666;DHT22;34452;50.796;4.994;2022-11-15T05:37:32;10.90;99.90
48666;DHT22;34452;50.796;4.994;2022-11-15T05:39:58;11.00;99.90
48666;DHT22;34452;50.796;4.994;2022-11-15T05:42:25;10.90;99.90
48666;DHT22;34452;50.796;4.994;2022-11-15T05:44:52;10.90;99.90
48666;DHT22;34452;50.796;4.994;2022-11-15T05:47:22;10.90;99.90
48666;DHT22;34452;50.796;4.994;2022-11-15T05:49:50;10.90;99.90
48666;DHT22;34452;50.796;4.994;2022-11-15T05:52:21;10.90;99.90
48666;DHT22;34452;50.796;4.994;2022-11-15T05:54:48;10.80;99.90
48666;DHT22;34452;50.796;4.994;2022-11-15T05:57:13;10.80;99.90
48666;DHT22;34452;50.796;4.994;2022-11-15T05:59:39;10.80;99.90
48666;DHT22;34452;50.796;4.994;2022-11-15T06:02:06;10.70;99.90
48666;DHT22;34452;50.796;4.994;2022-11-15T06:04:32;10.70;99.90
48666;DHT22;34452;50.796;4.994;2022-11-15T06:06:58;10.70;99.90
48666;DHT22;34452;50.796;4.994;2022-11-15T06:09:24;10.60;99.90
48666;DHT22;34452;50.796;4.994;2022-11-15T06:11:50;10.60;99.90
48666;DHT22;34452;50.796;4.994;2022-11-15T06:14:15;10.50;99.90
48666;DHT22;34452;50.796;4.994;2022-11-15T06:16:41;10.50;99.90
48666;DHT22;34452;50.796;4.994;2022-11-15T06:19:07;10.40;99.90
48666;DHT22;34452;50.796;4.994;2022-11-15T06:21:33;10.40;99.90
48666;DHT22;34452;50.796;4.994;2022-11-15T06:23:58;10.30;99.90
48666;DHT22;34452;50.796;4.994;2022-11-15T06:26:24;10.30;99.90
48666;DHT22;34452;50.796;4.994;2022-11-15T06:28:50;10.20;99.90
48666;DHT22;34452;50.796;4.994;2022-11-15T06:31:15;10.10;99.90
48666;DHT22;34452;50.796;4.994;2022-11-15T06:33:41;10.10;99.90
48666;DHT22;34452;50.796;4.994;2022-11-15T06:36:09;10.00;99.90
48666;DHT22;34452;50.796;4.994;2022-11-15T06:38:36;10.00;99.90
48666;DHT22;34452;50.796;4.994;2022-11-15T06:41:02;10.00;99.90
48666;DHT22;34452;50.796;4.994;2022-11-15T06:43:28;10.00;99.90
48666;DHT22;34452;50.796;4.994;2022-11-15T06:45:54;9.90;99.90
48666;DHT22;34452;50.796;4.994;2022-11-15T06:48:19;9.90;99.90
48666;DHT22;34452;50.796;4.994;2022-11-15T06:50:56;9.80;99.90
48666;DHT22;34452;50.796;4.994;2022-11-15T06:53:23;9.80;99.90
48666;DHT22;34452;50.796;4.994;2022-11-15T06:55:50;9.70;99.90
48666;DHT22;34452;50.796;4.994;2022-11-15T06:58:15;9.70;99.90
48666;DHT22;34452;50.796;4.994;2022-11-15T07:00:41;9.70;99.90
48666;DHT22;34452;50.796;4.994;2022-11-15T07:03:07;9.60;99.90
48666;DHT22;34452;50.796;4.994;2022-11-15T07:05:33;9.60;99.90
48666;DHT22;34452;50.796;4.994;2022-11-15T07:07:59;9.60;99.90
48666;DHT22;34452;50.796;4.994;2022-11-15T07:10:26;9.50;99.90
48666;DHT22;34452;50.796;4.994;2022-11-15T07:12:53;9.60;99.90
48666;DHT22;34452;50.796;4.994;2022-11-15T07:15:21;9.60;99.90
48666;DHT22;34452;50.796;4.994;2022-11-15T07:17:47;9.50;99.90
48666;DHT22;34452;50.796;4.994;2022-11-15T07:20:14;9.60;99.90
48666;DHT22;34452;50.796;4.994;2022-11-15T07:22:40;9.50;99.90
48666;DHT22;34452;50.796;4.994;2022-11-15T07:25:06;9.50;99.90
48666;DHT22;34452;50.796;4.994;2022-11-15T07:27:32;9.60;99.90
48666;DHT22;34452;50.796;4.994;2022-11-15T07:29:58;9.50;99.90
48666;DHT22;34452;50.796;4.994;2022-11-15T07:32:24;9.50;99.90
48666;DHT22;34452;50.796;4.994;2022-11-15T07:34:49;9.60;99.90
48666;DHT22;34452;50.796;4.994;2022-11-15T07:37:15;9.60;99.90
48666;DHT22;34452;50.796;4.994;2022-11-15T07:39:42;9.60;99.90
48666;DHT22;34452;50.796;4.994;2022-11-15T07:42:08;9.60;99.90
48666;DHT22;34452;50.796;4.994;2022-11-15T07:44:52;9.60;99.90
48666;DHT22;34452;50.796;4.994;2022-11-15T07:47:18;9.60;99.90
48666;DHT22;34452;50.796;4.994;2022-11-15T07:49:44;9.60;99.90
48666;DHT22;34452;50.796;4.994;2022-11-15T07:52:11;9.60;99.90
48666;DHT22;34452;50.796;4.994;2022-11-15T07:54:37;9.60;99.90
48666;DHT22;34452;50.796;4.994;2022-11-15T07:57:03;9.70;99.90
48666;DHT22;34452;50.796;4.994;2022-11-15T07:59:29;9.70;99.90
48666;DHT22;34452;50.796;4.994;2022-11-15T08:01:55;9.70;99.90
48666;DHT22;34452;50.796;4.994;2022-11-15T08:04:21;9.70;99.90
48666;DHT22;34452;50.796;4.994;2022-11-15T08:06:46;9.70;99.90
48666;DHT22;34452;50.796;4.994;2022-11-15T08:09:12;9.80;99.90
48666;DHT22;34452;50.796;4.994;2022-11-15T08:11:38;9.80;99.90
48666;DHT22;34452;50.796;4.994;2022-11-15T08:14:04;9.80;99.90
48666;DHT22;34452;50.796;4.994;2022-11-15T08:16:29;9.80;99.90
48666;DHT22;34452;50.796;4.994;2022-11-15T08:18:55;9.90;99.90
48666;DHT22;34452;50.796;4.994;2022-11-15T08:21:22;9.90;99.90
48666;DHT22;34452;50.796;4.994;2022-11-15T08:23:48;9.90;99.90
48666;DHT22;34452;50.796;4.994;2022-11-15T08:26:14;9.90;99.90
48666;DHT22;34452;50.796;4.994;2022-11-15T08:28:40;10.00;99.90
48666;DHT22;34452;50.796;4.994;2022-11-15T08:31:06;9.90;99.90
48666;DHT22;34452;50.796;4.994;2022-11-15T08:33:32;10.00;99.90
48666;DHT22;34452;50.796;4.994;2022-11-15T08:35:58;10.00;99.90
48666;DHT22;34452;50.796;4.994;2022-11-15T08:38:24;10.00;99.90
48666;DHT22;34452;50.796;4.994;2022-11-15T08:40:52;10.10;99.90
48666;DHT22;34452;50.796;4.994;2022-11-15T08:43:18;10.10;99.90
48666;DHT22;34452;50.796;4.994;2022-11-15T08:45:44;10.10;99.90
48666;DHT22;34452;50.796;4.994;2022-11-15T08:48:10;10.10;99.90
48666;DHT22;34452;50.796;4.994;2022-11-15T08:50:36;10.20;99.90
48666;DHT22;34452;50.796;4.994;2022-11-15T08:53:06;10.20;99.90
48666;DHT22;34452;50.796;4.994;2022-11-15T08:55:37;10.20;99.90
48666;DHT22;34452;50.796;4.994;2022-11-15T08:58:04;10.30;99.90
48666;DHT22;34452;50.796;4.994;2022-11-15T09:00:29;10.30;99.90
48666;DHT22;34452;50.796;4.994;2022-11-15T09:02:55;10.30;99.90
48666;DHT22;34452;50.796;4.994;2022-11-15T09:05:21;10.30;99.90
48666;DHT22;34452;50.796;4.994;2022-11-15T09:07:46;10.30;99.90
48666;DHT22;34452;50.796;4.994;2022-11-15T09:10:12;10.40;99.90
48666;DHT22;34452;50.796;4.994;2022-11-15T09:12:38;10.40;99.90
48666;DHT22;34452;50.796;4.994;2022-11-15T09:15:05;10.50;99.90
48666;DHT22;34452;50.796;4.994;2022-11-15T09:17:31;10.40;99.90
48666;DHT22;34452;50.796;4.994;2022-11-15T09:19:56;10.50;99.90
48666;DHT22;34452;50.796;4.994;2022-11-15T09:22:22;10.50;99.90
48666;DHT22;34452;50.796;4.994;2022-11-15T09:24:48;10.60;99.90
48666;DHT22;34452;50.796;4.994;2022-11-15T09:27:13;10.60;99.90
48666;DHT22;34452;50.796;4.994;2022-11-15T09:29:39;10.60;99.90
48666;DHT22;34452;50.796;4.994;2022-11-15T09:32:05;10.70;99.90
48666;DHT22;34452;50.796;4.994;2022-11-15T09:34:31;10.70;99.90
48666;DHT22;34452;50.796;4.994;2022-11-15T09:36:57;10.80;99.90
48666;DHT22;34452;50.796;4.994;2022-11-15T09:39:23;10.90;99.90
48666;DHT22;34452;50.796;4.994;2022-11-15T09:50:27;11.00;99.90
48666;DHT22;34452;50.796;4.994;2022-11-15T09:52:55;11.10;99.90
48666;DHT22;34452;50.796;4.994;2022-11-15T09:55:29;11.10;99.90
48666;DHT22;34452;50.796;4.994;2022-11-15T09:58:50;11.00;99.90
48666;DHT22;34452;50.796;4.994;2022-11-15T10:01:17;11.00;99.90
48666;DHT22;34452;50.796;4.994;2022-11-15T10:03:44;11.00;99.90
48666;DHT22;34452;50.796;4.994;2022-11-15T10:06:22;10.90;99.90
48666;DHT22;34452;50.796;4.994;2022-11-15T10:11:29;11.00;99.90
48666;DHT22;34452;50.796;4.994;2022-11-15T10:17:06;11.00;99.90
48666;DHT22;34452;50.796;4.994;2022-11-15T10:19:47;11.10;99.90
48666;DHT22;34452;50.796;4.994;2022-11-15T10:25:22;11.20;99.90
48666;DHT22;34452;50.796;4.994;2022-11-15T10:27:56;11.30;99.90
48666;DHT22;34452;50.796;4.994;2022-11-15T10:30:23;11.30;99.90
48666;DHT22;34452;50.796;4.994;2022-11-15T10:32:49;11.40;99.90
48666;DHT22;34452;50.796;4.994;2022-11-15T10:35:24;11.40;99.90
48666;DHT22;34452;50.796;4.994;2022-11-15T10:37:50;11.50;99.90
48666;DHT22;34452;50.796;4.994;2022-11-15T10:40:21;11.60;99.90
48666;DHT22;34452;50.796;4.994;2022-11-15T10:42:48;11.70;99.90
48666;DHT22;34452;50.796;4.994;2022-11-15T10:45:31;11.60;99.90
48666;DHT22;34452;50.796;4.994;2022-11-15T10:50:42;11.80;99.90
48666;DHT22;34452;50.796;4.994;2022-11-15T10:53:26;11.80;99.90
48666;DHT22;34452;50.796;4.994;2022-11-15T10:55:59;11.80;99.90
48666;DHT22;34452;50.796;4.994;2022-11-15T10:58:38;11.80;99.90
48666;DHT22;34452;50.796;4.994;2022-11-15T11:01:19;11.90;99.90
48666;DHT22;34452;50.796;4.994;2022-11-15T11:04:07;11.90;99.90
48666;DHT22;34452;50.796;4.994;2022-11-15T11:06:54;12.00;99.90
48666;DHT22;34452;50.796;4.994;2022-11-15T11:09:31;12.00;99.90
48666;DHT22;34452;50.796;4.994;2022-11-15T11:11:57;12.00;99.90
48666;DHT22;34452;50.796;4.994;2022-11-15T11:14:26;12.10;99.90
48666;DHT22;34452;50.796;4.994;2022-11-15T11:22:22;12.30;99.90
48666;DHT22;34452;50.796;4.994;2022-11-15T11:25:11;12.30;99.90
48666;DHT22;34452;50.796;4.994;2022-11-15T11:27:57;12.30;99.90
48666;DHT22;34452;50.796;4.994;2022-11-15T11:30:42;12.40;99.90
48666;DHT22;34452;50.796;4.994;2022-11-15T11:33:31;12.40;99.90
48666;DHT22;34452;50.796;4.994;2022-11-15T11:36:27;12.40;99.90
48666;DHT22;34452;50.796;4.994;2022-11-15T11:39:40;12.40;99.90
48666;DHT22;34452;50.796;4.994;2022-11-15T11:42:16;12.50;99.90
48666;DHT22;34452;50.796;4.994;2022-11-15T11:47:23;12.60;99.90
48666;DHT22;34452;50.796;4.994;2022-11-15T11:49:52;12.60;99.90
48666;DHT22;34452;50.796;4.994;2022-11-15T11:52:30;12.60;99.90
48666;DHT22;34452;50.796;4.994;2022-11-15T11:57:33;12.70;99.90
48666;DHT22;34452;50.796;4.994;2022-11-15T12:00:22;12.70;99.90
48666;DHT22;34452;50.796;4.994;2022-11-15T12:03:14;12.70;99.90
48666;DHT22;34452;50.796;4.994;2022-11-15T12:05:49;12.70;99.90
48666;DHT22;34452;50.796;4.994;2022-11-15T12:08:45;12.80;99.90
48666;DHT22;34452;50.796;4.994;2022-11-15T12:11:29;12.90;99.90
48666;DHT22;34452;50.796;4.994;2022-11-15T12:14:01;12.90;99.90
48666;DHT22;34452;50.796;4.994;2022-11-15T12:16:29;13.00;99.90
48666;DHT22;34452;50.796;4.994;2022-11-15T12:18:59;13.00;99.90
48666;DHT22;34452;50.796;4.994;2022-11-15T12:23:59;13.00;99.90
48666;DHT22;34452;50.796;4.994;2022-11-15T12:26:28;13.10;99.90
48666;DHT22;34452;50.796;4.994;2022-11-15T12:29:00;13.00;99.90
48666;DHT22;34452;50.796;4.994;2022-11-15T12:31:38;13.10;99.90
48666;DHT22;34452;50.796;4.994;2022-11-15T12:36:46;13.10;99.90
48666;DHT22;34452;50.796;4.994;2022-11-15T12:39:14;13.00;99.90
48666;DHT22;34452;50.796;4.994;2022-11-15T12:41:44;13.10;99.90
48666;DHT22;34452;50.796;4.994;2022-11-15T13:02:29;13.20;99.90
48666;DHT22;34452;50.796;4.994;2022-11-15T13:17:46;13.20;99.90
48666;DHT22;34452;50.796;4.994;2022-11-15T13:30:58;13.40;99.90
48666;DHT22;34452;50.796;4.994;2022-11-15T13:33:35;13.40;99.90
48666;DHT22;34452;50.796;4.994;2022-11-15T13:36:06;13.40;99.90
48666;DHT22;34452;50.796;4.994;2022-11-15T13:38:38;13.40;99.90
48666;DHT22;34452;50.796;4.994;2022-11-15T13:41:25;13.40;99.90
48666;DHT22;34452;50.796;4.994;2022-11-15T13:43:53;13.40;99.90
48666;DHT22;34452;50.796;4.994;2022-11-15T13:46:22;13.40;99.90
48666;DHT22;34452;50.796;4.994;2022-11-15T13:48:53;13.40;99.90
48666;DHT22;34452;50.796;4.994;2022-11-15T13:54:12;13.30;99.90
48666;DHT22;34452;50.796;4.994;2022-11-15T13:57:09;13.30;99.90
48666;DHT22;34452;50.796;4.994;2022-11-15T13:59:48;13.30;99.90
48666;DHT22;34452;50.796;4.994;2022-11-15T14:02:20;13.30;99.90
48666;DHT22;34452;50.796;4.994;2022-11-15T14:04:53;13.30;99.90
48666;DHT22;34452;50.796;4.994;2022-11-15T14:07:22;13.30;99.90
48666;DHT22;34452;50.796;4.994;2022-11-15T14:09:48;13.30;99.90
48666;DHT22;34452;50.796;4.994;2022-11-15T14:12:26;13.30;99.90
48666;DHT22;34452;50.796;4.994;2022-11-15T14:14:53;13.30;99.90
48666;DHT22;34452;50.796;4.994;2022-11-15T14:17:21;13.30;99.90
48666;DHT22;34452;50.796;4.994;2022-11-15T14:19:58;13.30;99.90
48666;DHT22;34452;50.796;4.994;2022-11-15T14:22:26;13.30;99.90
48666;DHT22;34452;50.796;4.994;2022-11-15T14:27:42;13.30;99.90
48666;DHT22;34452;50.796;4.994;2022-11-15T14:30:17;13.30;99.90
48666;DHT22;34452;50.796;4.994;2022-11-15T14:32:48;13.30;99.90
48666;DHT22;34452;50.796;4.994;2022-11-15T14:35:18;13.30;99.90
48666;DHT22;34452;50.796;4.994;2022-11-15T14:37:45;13.30;99.90
48666;DHT22;34452;50.796;4.994;2022-11-15T14:40:16;13.30;99.90
48666;DHT22;34452;50.796;4.994;2022-11-15T14:42:44;13.30;99.90
48666;DHT22;34452;50.796;4.994;2022-11-15T14:45:15;13.30;99.90
48666;DHT22;34452;50.796;4.994;2022-11-15T14:47:42;13.30;99.90
48666;DHT22;34452;50.796;4.994;2022-11-15T14:50:13;13.30;99.90
48666;DHT22;34452;50.796;4.994;2022-11-15T14:52:39;13.30;99.90
48666;DHT22;34452;50.796;4.994;2022-11-15T14:55:23;13.30;99.90
48666;DHT22;34452;50.796;4.994;2022-11-15T14:57:49;13.30;99.90
48666;DHT22;34452;50.796;4.994;2022-11-15T15:00:16;13.20;99.90
48666;DHT22;34452;50.796;4.994;2022-11-15T15:02:43;13.20;99.90
48666;DHT22;34452;50.796;4.994;2022-11-15T15:07:38;13.00;99.90
48666;DHT22;34452;50.796;4.994;2022-11-15T15:10:03;13.00;99.90
48666;DHT22;34452;50.796;4.994;2022-11-15T15:12:29;13.00;99.90
48666;DHT22;34452;50.796;4.994;2022-11-15T15:14:55;12.90;99.90
48666;DHT22;34452;50.796;4.994;2022-11-15T15:17:21;12.90;99.90
48666;DHT22;34452;50.796;4.994;2022-11-15T15:19:46;12.80;99.90
48666;DHT22;34452;50.796;4.994;2022-11-15T15:22:17;12.80;99.90
48666;DHT22;34452;50.796;4.994;2022-11-15T15:24:44;12.80;99.90
48666;DHT22;34452;50.796;4.994;2022-11-15T15:27:11;12.70;99.90
48666;DHT22;34452;50.796;4.994;2022-11-15T15:29:38;12.60;99.90
48666;DHT22;34452;50.796;4.994;2022-11-15T15:32:04;12.60;99.90
48666;DHT22;34452;50.796;4.994;2022-11-15T15:34:31;12.60;99.90
48666;DHT22;34452;50.796;4.994;2022-11-15T15:37:29;12.60;99.90
48666;DHT22;34452;50.796;4.994;2022-11-15T15:39:56;12.60;99.90
48666;DHT22;34452;50.796;4.994;2022-11-15T15:42:23;12.60;99.90
48666;DHT22;34452;50.796;4.994;2022-11-15T15:44:49;12.60;99.90
48666;DHT22;34452;50.796;4.994;2022-11-15T15:47:23;12.60;99.90
48666;DHT22;34452;50.796;4.994;2022-11-15T15:49:49;12.60;99.90
48666;DHT22;34452;50.796;4.994;2022-11-15T15:52:16;12.60;99.90
48666;DHT22;34452;50.796;4.994;2022-11-15T15:54:42;12.60;99.90
48666;DHT22;34452;50.796;4.994;2022-11-15T15:57:10;12.60;99.90
48666;DHT22;34452;50.796;4.994;2022-11-15T15:59:36;12.60;99.90
48666;DHT22;34452;50.796;4.994;2022-11-15T16:02:03;12.60;99.90
48666;DHT22;34452;50.796;4.994;2022-11-15T16:04:29;12.60;99.90
48666;DHT22;34452;50.796;4.994;2022-11-15T16:07:02;12.50;99.90
48666;DHT22;34452;50.796;4.994;2022-11-15T16:09:29;12.50;99.90
48666;DHT22;34452;50.796;4.994;2022-11-15T16:12:13;12.50;99.90
48666;DHT22;34452;50.796;4.994;2022-11-15T16:14:39;12.40;99.90
48666;DHT22;34452;50.796;4.994;2022-11-15T16:17:05;12.40;99.90
48666;DHT22;34452;50.796;4.994;2022-11-15T16:19:31;12.40;99.90
48666;DHT22;34452;50.796;4.994;2022-11-15T16:21:56;12.40;99.90
48666;DHT22;34452;50.796;4.994;2022-11-15T16:24:22;12.40;99.90
48666;DHT22;34452;50.796;4.994;2022-11-15T16:26:50;12.30;99.90
48666;DHT22;34452;50.796;4.994;2022-11-15T16:29:16;12.20;99.90
48666;DHT22;34452;50.796;4.994;2022-11-15T16:31:41;12.20;99.90
48666;DHT22;34452;50.796;4.994;2022-11-15T16:34:07;12.20;99.90
48666;DHT22;34452;50.796;4.994;2022-11-15T16:36:34;12.20;99.90
48666;DHT22;34452;50.796;4.994;2022-11-15T16:39:01;12.20;99.90
48666;DHT22;34452;50.796;4.994;2022-11-15T16:41:30;12.20;99.90
48666;DHT22;34452;50.796;4.994;2022-11-15T16:43:56;12.20;99.90
48666;DHT22;34452;50.796;4.994;2022-11-15T16:46:22;12.20;99.90
48666;DHT22;34452;50.796;4.994;2022-11-15T16:48:49;12.10;99.90
48666;DHT22;34452;50.796;4.994;2022-11-15T16:51:16;12.10;99.90
48666;DHT22;34452;50.796;4.994;2022-11-15T16:53:42;12.10;99.90
48666;DHT22;34452;50.796;4.994;2022-11-15T16:56:27;12.10;99.90
48666;DHT22;34452;50.796;4.994;2022-11-15T16:58:58;12.00;99.90
48666;DHT22;34452;50.796;4.994;2022-11-15T17:01:26;12.10;99.90
48666;DHT22;34452;50.796;4.994;2022-11-15T17:03:52;12.00;99.90
48666;DHT22;34452;50.796;4.994;2022-11-15T17:06:18;12.10;99.90
48666;DHT22;34452;50.796;4.994;2022-11-15T17:08:45;12.10;99.90
48666;DHT22;34452;50.796;4.994;2022-11-15T17:11:14;12.10;99.90
48666;DHT22;34452;50.796;4.994;2022-11-15T17:13:41;12.10;99.90
48666;DHT22;34452;50.796;4.994;2022-11-15T17:16:09;12.10;99.90
48666;DHT22;34452;50.796;4.994;2022-11-15T17:18:36;12.20;99.90
48666;DHT22;34452;50.796;4.994;2022-11-15T17:21:13;12.20;99.90
48666;DHT22;34452;50.796;4.994;2022-11-15T17:23:39;12.30;99.90
48666;DHT22;34452;50.796;4.994;2022-11-15T17:26:05;12.30;99.90
48666;DHT22;34452;50.796;4.994;2022-11-15T17:28:31;12.30;99.90
48666;DHT22;34452;50.796;4.994;2022-11-15T17:30:57;12.30;99.90
48666;DHT22;34452;50.796;4.994;2022-11-15T17:33:23;12.30;99.90
48666;DHT22;34452;50.796;4.994;2022-11-15T17:36:00;12.30;99.90
48666;DHT22;34452;50.796;4.994;2022-11-15T17:38:27;12.30;99.90
48666;DHT22;34452;50.796;4.994;2022-11-15T17:41:05;12.30;99.90
48666;DHT22;34452;50.796;4.994;2022-11-15T17:43:34;12.40;99.90
48666;DHT22;34452;50.796;4.994;2022-11-15T17:46:03;12.40;99.90
48666;DHT22;34452;50.796;4.994;2022-11-15T17:48:30;12.40;99.90
48666;DHT22;34452;50.796;4.994;2022-11-15T17:51:04;12.40;99.90